Time;durP1;ratioP1;P1;durP2;ratioP2;P2;SDS_P1;SDS_P2;PMS_P1;PMS_P2;Temp;Humidity;BMP_temperature;BMP_pressure;BME280_temperature;BME280_humidity;BME280_pressure;Samples;Min_cycle;Max_cycle;Signal;HPM_P1;HPM_P2
2021/12/15 00:00:29;;;;;;;42.90;29.00;;;6.70;99.90;;;;;;5068814;28;20435;-51
2021/12/15 00:02:55;;;;;;;45.20;28.07;;;6.70;99.90;;;;;;5080312;28;20185;-53
2021/12/15 00:05:23;;;;;;;41.87;27.73;;;6.70;99.90;;;;;;5068320;28;20810;-53
2021/12/15 00:08:11;;;;;;;43.60;26.93;;;6.70;99.90;;;;;;5073858;28;20256;-50
2021/12/15 00:10:38;;;;;;;47.37;28.73;;;6.80;99.90;;;;;;5057754;28;20924;-58
2021/12/15 00:13:03;;;;;;;44.80;28.30;;;6.80;99.90;;;;;;5070145;28;20432;-52
2021/12/15 00:15:29;;;;;;;40.90;26.87;;;6.80;99.90;;;;;;5067401;28;20423;-51
2021/12/15 00:17:57;;;;;;;44.78;28.75;;;6.80;99.90;;;;;;5075026;28;20195;-49
2021/12/15 00:20:23;;;;;;;42.05;27.58;;;6.80;99.90;;;;;;5069559;28;20189;-55
2021/12/15 00:22:52;;;;;;;44.25;27.98;;;6.80;99.90;;;;;;5068049;28;20722;-51
2021/12/15 00:25:23;;;;;;;39.92;26.17;;;6.80;99.90;;;;;;5071226;28;20262;-52
2021/12/15 00:27:49;;;;;;;43.53;28.00;;;6.80;99.90;;;;;;5075535;28;20186;-53
2021/12/15 00:30:15;;;;;;;40.97;26.07;;;6.90;99.90;;;;;;5083494;28;20431;-51
2021/12/15 00:32:41;;;;;;;40.30;26.80;;;6.90;99.90;;;;;;5068721;28;20430;-55
2021/12/15 00:35:08;;;;;;;43.17;26.60;;;6.90;99.90;;;;;;5077434;28;20489;-50
2021/12/15 00:37:33;;;;;;;40.20;25.10;;;6.80;99.90;;;;;;5072923;28;20442;-49
2021/12/15 00:39:59;;;;;;;42.40;28.17;;;6.90;99.90;;;;;;5082696;28;20908;-51
2021/12/15 00:42:25;;;;;;;44.47;27.73;;;6.90;99.90;;;;;;5068952;28;20181;-52
2021/12/15 00:44:51;;;;;;;48.13;29.40;;;6.90;99.90;;;;;;5074798;28;20204;-55
2021/12/15 00:47:16;;;;;;;40.40;25.00;;;6.90;99.90;;;;;;5071274;28;20471;-52
2021/12/15 00:49:43;;;;;;;39.50;24.73;;;6.90;99.90;;;;;;5077469;28;20200;-53
2021/12/15 00:52:09;;;;;;;39.47;27.37;;;6.90;99.90;;;;;;5071490;28;20276;-52
2021/12/15 00:54:36;;;;;;;35.47;25.23;;;6.90;99.90;;;;;;5076679;28;20434;-52
2021/12/15 00:57:03;;;;;;;36.47;25.55;;;6.90;99.90;;;;;;5072337;28;20886;-50
2021/12/15 00:59:29;;;;;;;38.07;24.67;;;6.90;99.90;;;;;;5082549;28;20180;-52
2021/12/15 01:01:55;;;;;;;41.35;27.20;;;6.90;99.90;;;;;;5072697;28;20442;-50
2021/12/15 01:04:24;;;;;;;43.05;26.50;;;6.90;99.90;;;;;;5070253;28;20189;-49
2021/12/15 01:06:55;;;;;;;39.97;25.07;;;6.90;99.90;;;;;;5058489;28;20202;-53
2021/12/15 01:09:26;;;;;;;42.87;26.50;;;6.90;99.90;;;;;;5079504;28;21261;-48
2021/12/15 01:14:35;;;;;;;41.13;26.13;;;6.80;99.90;;;;;;5076262;28;20996;-50
2021/12/15 01:19:53;;;;;;;43.40;26.90;;;6.70;99.90;;;;;;5079583;28;20200;-55
2021/12/15 01:22:30;;;;;;;42.65;26.95;;;6.60;99.90;;;;;;5071121;28;20470;-54
2021/12/15 01:25:02;;;;;;;42.53;25.30;;;6.50;99.90;;;;;;5074568;28;20233;-50
2021/12/15 01:27:28;;;;;;;38.15;25.55;;;6.50;99.90;;;;;;5081716;28;20215;-52
2021/12/15 01:29:54;;;;;;;42.10;25.43;;;6.60;99.90;;;;;;5067636;28;20201;-53
2021/12/15 01:32:20;;;;;;;43.40;26.57;;;6.60;99.90;;;;;;5077338;28;20445;-49
2021/12/15 01:34:46;;;;;;;38.03;25.20;;;6.60;99.90;;;;;;5078008;28;20219;-50
2021/12/15 01:37:12;;;;;;;45.08;26.25;;;6.50;99.90;;;;;;5070480;28;20189;-52
2021/12/15 01:39:38;;;;;;;43.05;26.10;;;6.50;99.90;;;;;;5083285;28;20624;-53
2021/12/15 01:42:04;;;;;;;38.60;25.80;;;6.50;99.90;;;;;;5068482;28;20181;-53
2021/12/15 01:47:03;;;;;;;42.45;25.38;;;6.60;99.90;;;;;;5070781;28;20519;-54
2021/12/15 01:49:37;;;;;;;38.37;24.90;;;6.60;99.90;;;;;;5074712;28;20516;-52
2021/12/15 01:52:27;;;;;;;40.10;25.07;;;6.60;99.90;;;;;;5067744;28;21313;-54
2021/12/15 01:54:56;;;;;;;42.30;25.20;;;6.60;99.90;;;;;;5082409;28;20533;-52
2021/12/15 01:57:24;;;;;;;42.20;26.50;;;6.60;99.90;;;;;;5077115;28;20200;-53
2021/12/15 01:59:52;;;;;;;42.67;25.17;;;6.60;99.90;;;;;;5088098;28;20184;-51
2021/12/15 02:02:20;;;;;;;35.90;23.95;;;6.70;99.90;;;;;;5073225;28;20185;-49
2021/12/15 02:04:46;;;;;;;38.90;25.40;;;6.70;99.90;;;;;;5074807;28;20213;-55
2021/12/15 02:07:15;;;;;;;41.40;25.40;;;6.70;99.90;;;;;;5078236;28;20654;-52
2021/12/15 02:12:29;;;;;;;38.85;24.27;;;6.60;99.90;;;;;;5079948;28;20177;-50
2021/12/15 02:14:55;;;;;;;37.43;24.47;;;6.60;99.90;;;;;;5071753;28;20188;-51
2021/12/15 02:17:22;;;;;;;37.43;24.37;;;6.60;99.90;;;;;;5073903;28;20765;-54
2021/12/15 02:19:48;;;;;;;40.67;25.93;;;6.60;99.90;;;;;;5085062;28;20915;-50
2021/12/15 02:22:14;;;;;;;44.50;24.87;;;6.50;99.90;;;;;;5072309;28;20462;-54
2021/12/15 02:24:42;;;;;;;38.53;24.40;;;6.50;99.90;;;;;;5071637;28;20412;-52
2021/12/15 02:27:11;;;;;;;39.58;25.40;;;6.40;99.90;;;;;;5052160;28;20639;-50
2021/12/15 02:29:40;;;;;;;37.03;24.63;;;6.50;99.90;;;;;;5078988;28;20182;-53
2021/12/15 02:34:56;;;;;;;37.95;24.88;;;6.50;99.90;;;;;;5074965;28;20205;-52
2021/12/15 02:37:20;;;;;;;38.45;24.20;;;6.50;99.90;;;;;;5069319;28;20197;-49
2021/12/15 02:40:00;;;;;;;35.75;24.90;;;6.50;99.90;;;;;;5071073;28;20272;-48
2021/12/15 02:42:30;;;;;;;37.90;23.37;;;6.60;99.90;;;;;;5071575;28;20188;-52
2021/12/15 02:44:56;;;;;;;41.15;23.80;;;6.60;99.90;;;;;;5081205;28;20542;-53
2021/12/15 02:47:26;;;;;;;36.10;24.43;;;6.60;99.90;;;;;;5075914;28;20185;-51
2021/12/15 02:49:54;;;;;;;39.47;24.67;;;6.60;99.90;;;;;;5071163;28;20476;-53
2021/12/15 02:52:20;;;;;;;37.97;23.13;;;6.60;99.90;;;;;;5061188;28;20268;-51
2021/12/15 02:54:46;;;;;;;39.80;25.33;;;6.60;99.90;;;;;;5070297;28;20975;-54
2021/12/15 02:57:12;;;;;;;40.90;24.50;;;6.70;99.90;;;;;;5072647;28;20452;-51
2021/12/15 02:59:50;;;;;;;41.17;23.63;;;6.70;99.90;;;;;;5071792;28;20185;-54
2021/12/15 03:05:16;;;;;;;33.85;23.42;;;6.70;99.90;;;;;;5067182;28;20466;-53
2021/12/15 03:07:53;;;;;;;39.20;22.97;;;6.70;99.90;;;;;;5073762;28;20184;-53
2021/12/15 03:15:51;;;;;;;40.45;23.63;;;6.70;99.90;;;;;;5069912;28;20189;-53
2021/12/15 03:18:23;;;;;;;39.30;24.73;;;6.80;99.90;;;;;;5070550;28;20646;-54
2021/12/15 03:21:00;;;;;;;42.58;25.30;;;6.80;99.90;;;;;;5072906;28;20181;-56
2021/12/15 03:23:37;;;;;;;38.73;24.10;;;6.80;99.90;;;;;;5069728;28;20197;-54
2021/12/15 03:26:03;;;;;;;38.20;22.70;;;6.90;99.90;;;;;;5067495;28;20478;-48
2021/12/15 03:34:36;;;;;;;35.20;23.33;;;6.80;99.90;;;;;;5073488;28;20311;-53
2021/12/15 03:39:28;;;;;;;35.10;22.77;;;6.60;99.90;;;;;;5076614;28;20184;-54
2021/12/15 03:42:05;;;;;;;34.50;23.20;;;6.70;99.90;;;;;;5078496;28;20538;-54
2021/12/15 03:44:33;;;;;;;36.53;23.13;;;6.60;99.90;;;;;;5069818;28;20503;-54
2021/12/15 03:47:03;;;;;;;38.40;22.90;;;6.70;99.90;;;;;;5077229;28;20189;-50
2021/12/15 03:49:29;;;;;;;34.67;22.58;;;6.70;99.90;;;;;;5069669;28;20631;-52
2021/12/15 03:51:55;;;;;;;37.20;23.67;;;6.70;99.90;;;;;;5070779;28;20208;-52
2021/12/15 03:54:21;;;;;;;38.20;22.87;;;6.70;99.90;;;;;;5072885;28;20208;-51
2021/12/15 03:56:49;;;;;;;40.30;22.80;;;6.70;99.90;;;;;;5084922;28;20189;-53
2021/12/15 03:59:14;;;;;;;36.83;22.60;;;6.70;99.90;;;;;;5083984;28;21225;-52
2021/12/15 04:01:41;;;;;;;35.60;21.43;;;6.70;99.90;;;;;;5076059;28;20181;-52
2021/12/15 04:04:07;;;;;;;36.63;22.52;;;6.70;99.90;;;;;;5069428;28;20178;-51
2021/12/15 04:06:36;;;;;;;34.77;21.40;;;6.70;99.90;;;;;;5079502;28;20213;-54
2021/12/15 04:09:05;;;;;;;33.53;21.93;;;6.80;99.90;;;;;;5068375;28;20514;-52
2021/12/15 04:11:34;;;;;;;36.17;22.05;;;6.80;99.90;;;;;;5077296;28;20447;-53
2021/12/15 04:14:08;;;;;;;33.47;22.00;;;6.70;99.90;;;;;;5072593;28;20177;-52
2021/12/15 04:19:03;;;;;;;36.40;22.08;;;6.70;99.90;;;;;;5074617;28;20191;-51
2021/12/15 04:21:30;;;;;;;35.38;20.73;;;6.70;99.90;;;;;;5078929;28;20200;-51
2021/12/15 04:23:57;;;;;;;29.63;21.30;;;6.70;99.90;;;;;;5082480;28;20185;-48
2021/12/15 04:26:23;;;;;;;35.25;21.80;;;6.70;99.90;;;;;;5079360;28;20232;-48
2021/12/15 04:28:50;;;;;;;34.92;22.67;;;6.80;99.90;;;;;;5074738;28;20225;-55
2021/12/15 04:31:19;;;;;;;31.33;21.63;;;6.70;99.90;;;;;;5076001;28;20173;-53
2021/12/15 04:33:54;;;;;;;31.52;20.67;;;6.80;99.90;;;;;;5077230;28;20200;-55
2021/12/15 04:36:26;;;;;;;38.28;23.05;;;6.70;99.90;;;;;;5067867;28;20706;-50
2021/12/15 04:38:53;;;;;;;36.65;22.77;;;6.80;99.90;;;;;;5077505;28;20235;-52
2021/12/15 04:41:20;;;;;;;35.60;21.67;;;6.80;99.90;;;;;;5073030;28;20565;-51
2021/12/15 04:43:56;;;;;;;36.58;21.77;;;6.80;99.90;;;;;;5063880;28;20984;-54
2021/12/15 04:46:25;;;;;;;33.17;20.85;;;6.80;99.90;;;;;;5073787;28;20204;-50
2021/12/15 04:48:51;;;;;;;35.50;21.65;;;6.70;99.90;;;;;;5084013;28;20663;-52
2021/12/15 04:51:18;;;;;;;38.37;21.93;;;6.80;99.90;;;;;;5075356;28;20743;-52
2021/12/15 04:53:45;;;;;;;28.27;20.23;;;6.80;99.90;;;;;;5075389;28;20470;-53
2021/12/15 04:56:11;;;;;;;35.13;20.80;;;6.80;99.90;;;;;;5066395;28;20192;-53
2021/12/15 04:58:37;;;;;;;37.20;20.43;;;6.80;99.90;;;;;;5076358;28;20454;-53
2021/12/15 05:01:06;;;;;;;32.83;21.33;;;6.80;99.90;;;;;;5071351;28;20446;-54
2021/12/15 05:03:32;;;;;;;31.30;20.93;;;6.80;99.90;;;;;;5083162;28;20193;-54
2021/12/15 05:05:58;;;;;;;35.27;21.53;;;6.80;99.90;;;;;;5079631;28;20486;-55
2021/12/15 05:08:23;;;;;;;32.13;21.03;;;6.80;99.90;;;;;;5081614;28;20189;-53
2021/12/15 05:10:51;;;;;;;35.77;21.37;;;6.80;99.90;;;;;;5073404;28;20321;-51
2021/12/15 05:13:17;;;;;;;33.28;21.13;;;6.80;99.90;;;;;;5061678;28;20363;-52
2021/12/15 05:15:43;;;;;;;26.70;20.38;;;6.80;99.90;;;;;;5047294;28;20190;-51
2021/12/15 05:18:09;;;;;;;42.00;29.30;;;6.80;99.90;;;;;;5039124;28;20174;-56
2021/12/15 05:20:38;;;;;;;33.85;22.00;;;6.80;99.90;;;;;;5050786;28;20532;-56
2021/12/15 05:23:05;;;;;;;34.97;20.97;;;6.80;99.90;;;;;;5044446;28;20186;-50
2021/12/15 05:25:31;;;;;;;32.45;19.27;;;6.80;99.90;;;;;;5051281;28;20459;-47
2021/12/15 05:27:57;;;;;;;32.30;18.70;;;6.80;99.90;;;;;;5056536;28;20292;-52
2021/12/15 05:30:23;;;;;;;30.80;19.87;;;6.80;99.90;;;;;;5053223;28;20643;-50
2021/12/15 05:32:50;;;;;;;32.73;20.73;;;6.80;99.90;;;;;;5043369;28;20435;-49
2021/12/15 05:35:22;;;;;;;30.23;19.43;;;6.90;99.90;;;;;;5046888;28;20448;-51
2021/12/15 05:37:50;;;;;;;31.77;18.90;;;7.00;99.90;;;;;;5032736;28;20429;-48
2021/12/15 05:40:16;;;;;;;28.40;17.60;;;6.90;99.90;;;;;;5075098;28;20852;-50
2021/12/15 05:42:42;;;;;;;32.70;18.90;;;6.90;99.90;;;;;;5071768;28;20490;-53
2021/12/15 05:45:08;;;;;;;27.20;17.60;;;6.90;99.90;;;;;;5073400;28;20284;-50
2021/12/15 05:47:34;;;;;;;27.03;18.00;;;7.00;99.90;;;;;;5061944;28;20193;-48
2021/12/15 05:50:01;;;;;;;29.02;18.45;;;6.90;99.90;;;;;;5068705;28;20491;-56
2021/12/15 05:52:30;;;;;;;30.38;19.05;;;7.00;99.90;;;;;;5070551;28;20196;-49
2021/12/15 05:54:57;;;;;;;30.40;19.43;;;7.00;99.90;;;;;;5070362;28;20277;-50
2021/12/15 05:57:23;;;;;;;26.30;18.03;;;6.90;99.90;;;;;;5069831;28;20431;-53
2021/12/15 05:59:48;;;;;;;25.83;17.10;;;6.90;99.90;;;;;;5069778;28;20796;-53
2021/12/15 06:02:14;;;;;;;28.27;17.37;;;6.90;99.90;;;;;;5070554;28;20193;-53
2021/12/15 06:04:40;;;;;;;25.83;18.00;;;6.90;99.90;;;;;;5070399;28;20197;-52
2021/12/15 06:07:05;;;;;;;24.43;16.83;;;6.90;99.90;;;;;;5070696;28;20562;-54
2021/12/15 06:09:32;;;;;;;24.87;15.97;;;6.90;99.90;;;;;;5071195;28;20688;-52
2021/12/15 06:11:59;;;;;;;21.50;15.10;;;6.90;99.90;;;;;;5068074;28;20174;-52
2021/12/15 06:14:27;;;;;;;25.17;16.60;;;6.90;99.90;;;;;;5070773;28;20785;-50
2021/12/15 06:16:58;;;;;;;23.17;15.00;;;6.90;99.90;;;;;;5071344;28;20511;-56
2021/12/15 06:19:23;;;;;;;20.63;15.57;;;7.00;99.90;;;;;;5070951;28;20482;-50
2021/12/15 06:21:49;;;;;;;23.73;16.00;;;7.00;99.90;;;;;;5071348;28;20420;-52
2021/12/15 06:24:15;;;;;;;21.37;15.70;;;7.00;99.90;;;;;;5070918;28;20294;-53
2021/12/15 06:26:41;;;;;;;21.27;15.20;;;7.00;99.90;;;;;;5071416;28;20201;-58
2021/12/15 06:29:07;;;;;;;20.97;13.90;;;7.10;99.90;;;;;;5070993;28;20458;-51
2021/12/15 06:31:32;;;;;;;20.67;14.27;;;7.00;99.90;;;;;;5070859;28;20221;-51
2021/12/15 06:33:58;;;;;;;21.40;14.20;;;7.00;99.90;;;;;;5071266;28;20433;-53
2021/12/15 06:36:24;;;;;;;20.03;13.53;;;7.00;99.90;;;;;;5071288;28;20288;-51
2021/12/15 06:38:52;;;;;;;25.77;18.37;;;7.00;99.90;;;;;;5053139;28;20205;-52
2021/12/15 06:41:20;;;;;;;25.33;20.30;;;7.00;99.90;;;;;;5070459;28;20793;-53
2021/12/15 06:43:51;;;;;;;23.40;18.47;;;7.00;99.90;;;;;;5070711;28;20420;-51
2021/12/15 06:59:49;;;;;;;20.37;15.30;;;7.20;99.90;;;;;;5071119;28;20488;-56
2021/12/15 07:02:15;;;;;;;18.50;13.60;;;7.20;99.90;;;;;;5070171;28;20437;-51
2021/12/15 07:04:41;;;;;;;19.60;13.20;;;7.20;99.90;;;;;;5070479;28;20182;-49
2021/12/15 07:07:06;;;;;;;18.60;13.00;;;7.20;99.90;;;;;;5070282;28;20427;-50
2021/12/15 07:09:33;;;;;;;17.80;12.80;;;7.10;99.90;;;;;;5069344;28;20200;-54
2021/12/15 07:12:00;;;;;;;17.43;12.90;;;7.20;99.90;;;;;;5065427;28;20182;-51
2021/12/15 07:14:26;;;;;;;16.57;12.80;;;7.10;99.90;;;;;;5072863;28;20403;-50
2021/12/15 07:16:54;;;;;;;15.90;10.90;;;7.10;99.90;;;;;;5070217;28;20424;-53
2021/12/15 07:22:15;;;;;;;13.20;9.77;;;7.20;99.90;;;;;;5070380;28;20828;-57
2021/12/15 07:24:42;;;;;;;16.63;10.03;;;7.20;99.90;;;;;;5069545;28;20473;-55
2021/12/15 07:27:08;;;;;;;18.00;10.63;;;7.30;99.90;;;;;;5068560;28;20797;-55
2021/12/15 07:29:35;;;;;;;14.63;9.93;;;7.30;99.90;;;;;;5070264;28;20531;-52
2021/12/15 07:32:03;;;;;;;14.40;9.53;;;7.40;99.90;;;;;;5051127;28;20432;-52
2021/12/15 07:34:28;;;;;;;15.93;9.90;;;7.40;99.90;;;;;;5069226;28;21081;-53
2021/12/15 07:36:54;;;;;;;14.07;9.30;;;7.40;99.90;;;;;;5070022;28;20424;-55
2021/12/15 07:39:21;;;;;;;12.53;8.47;;;7.40;99.90;;;;;;5063298;28;20452;-53
2021/12/15 07:42:02;;;;;;;13.50;9.20;;;7.40;99.90;;;;;;5067754;28;20189;-53
2021/12/15 07:44:28;;;;;;;15.77;9.47;;;7.40;99.90;;;;;;5068164;28;20424;-53
2021/12/15 07:46:54;;;;;;;13.40;9.80;;;7.50;99.90;;;;;;5069353;28;20485;-52
2021/12/15 07:49:21;;;;;;;14.60;9.90;;;7.50;99.90;;;;;;5069102;28;20235;-52
2021/12/15 07:51:48;;;;;;;12.53;8.60;;;7.50;99.90;;;;;;5067987;28;20972;-52
2021/12/15 07:54:16;;;;;;;13.67;8.80;;;7.60;99.90;;;;;;5066955;28;20528;-52
2021/12/15 07:56:42;;;;;;;14.97;10.17;;;7.60;99.90;;;;;;5068460;28;20968;-51
2021/12/15 07:59:08;;;;;;;12.53;9.20;;;7.60;99.90;;;;;;5069060;28;20423;-51
2021/12/15 08:01:34;;;;;;;13.73;9.33;;;7.60;99.90;;;;;;5067705;28;20427;-52
2021/12/15 08:03:59;;;;;;;11.87;8.97;;;7.60;99.90;;;;;;5067979;28;20435;-51
2021/12/15 08:06:27;;;;;;;11.07;8.90;;;7.60;99.90;;;;;;5068246;28;20276;-51
2021/12/15 08:08:54;;;;;;;13.10;9.83;;;7.60;99.90;;;;;;5068664;28;20192;-53
2021/12/15 08:11:19;;;;;;;12.47;8.53;;;7.60;99.90;;;;;;5069526;28;20428;-51
2021/12/15 08:13:45;;;;;;;13.37;9.63;;;7.60;99.90;;;;;;5070415;28;20431;-58
2021/12/15 08:16:13;;;;;;;12.80;9.00;;;7.70;99.90;;;;;;5077509;28;21119;-56
2021/12/15 08:18:40;;;;;;;11.70;8.87;;;7.60;99.90;;;;;;5068843;28;20419;-50
2021/12/15 08:21:06;;;;;;;11.70;8.23;;;7.70;99.90;;;;;;5069108;28;20427;-52
2021/12/15 08:23:32;;;;;;;13.90;10.33;;;7.70;99.90;;;;;;5067946;28;20438;-50
2021/12/15 08:25:59;;;;;;;14.77;9.67;;;7.70;99.90;;;;;;5068275;28;20475;-50
2021/12/15 08:28:24;;;;;;;11.93;8.83;;;7.70;99.90;;;;;;5069632;28;20215;-52
2021/12/15 08:30:51;;;;;;;11.60;9.23;;;7.80;99.90;;;;;;5069146;28;20521;-54
2021/12/15 08:33:20;;;;;;;13.97;9.17;;;7.80;99.90;;;;;;5069287;28;20674;-53
2021/12/15 08:35:53;;;;;;;11.87;9.40;;;7.90;99.90;;;;;;5067287;28;20518;-53
2021/12/15 08:38:20;;;;;;;12.10;9.00;;;8.00;99.90;;;;;;5068686;28;20801;-50
2021/12/15 08:40:47;;;;;;;13.33;9.73;;;7.90;99.90;;;;;;5066959;28;20517;-55
2021/12/15 08:43:15;;;;;;;12.17;8.73;;;8.00;99.90;;;;;;5069355;28;20420;-52
2021/12/15 08:45:46;;;;;;;10.87;9.60;;;7.90;99.90;;;;;;5058902;28;20488;-54
2021/12/15 08:48:12;;;;;;;13.50;10.60;;;7.90;99.90;;;;;;5049016;28;20482;-54
2021/12/15 08:50:40;;;;;;;12.77;9.50;;;7.90;99.90;;;;;;5063456;28;20463;-55
2021/12/15 08:53:09;;;;;;;13.57;10.30;;;7.90;99.90;;;;;;5066927;28;20235;-52
2021/12/15 08:55:35;;;;;;;12.87;10.20;;;7.90;99.90;;;;;;5065625;28;20435;-51
2021/12/15 08:58:05;;;;;;;11.93;10.40;;;8.00;99.90;;;;;;5069351;28;20431;-58
2021/12/15 09:00:31;;;;;;;12.70;10.03;;;8.00;99.90;;;;;;5059322;28;20774;-51
2021/12/15 09:02:57;;;;;;;12.47;10.33;;;8.00;99.90;;;;;;5069334;28;20424;-49
2021/12/15 09:05:25;;;;;;;12.73;10.20;;;8.00;99.90;;;;;;5071738;28;20451;-52
2021/12/15 09:07:53;;;;;;;13.93;10.77;;;8.00;99.90;;;;;;5054003;28;20452;-52
2021/12/15 09:10:22;;;;;;;13.47;11.43;;;8.00;99.90;;;;;;5071296;28;20456;-52
2021/12/15 09:12:47;;;;;;;13.40;11.20;;;8.10;99.90;;;;;;5071226;28;21134;-51
2021/12/15 09:15:14;;;;;;;13.80;11.00;;;8.10;99.90;;;;;;5072550;28;20439;-50
2021/12/15 09:17:40;;;;;;;14.40;11.30;;;8.20;99.90;;;;;;5078279;28;20627;-51
2021/12/15 09:20:09;;;;;;;14.60;11.57;;;8.20;99.90;;;;;;5072305;28;20426;-53
2021/12/15 09:22:37;;;;;;;14.20;10.73;;;8.20;99.90;;;;;;5070677;28;20784;-55
2021/12/15 09:25:03;;;;;;;14.47;10.57;;;8.20;99.90;;;;;;5071143;28;20464;-52
2021/12/15 09:27:29;;;;;;;13.33;11.17;;;8.30;99.90;;;;;;5071463;28;20408;-55
2021/12/15 09:29:54;;;;;;;16.30;11.30;;;8.40;99.90;;;;;;5089114;28;20419;-55
2021/12/15 09:32:20;;;;;;;14.67;11.93;;;8.50;99.90;;;;;;5075319;28;20809;-52
2021/12/15 09:34:46;;;;;;;14.57;10.77;;;8.50;99.90;;;;;;5071781;28;20696;-53
2021/12/15 09:37:12;;;;;;;15.80;12.93;;;8.50;99.90;;;;;;5070641;28;20205;-53
2021/12/15 09:39:38;;;;;;;16.00;12.70;;;8.60;99.90;;;;;;5071688;28;20412;-56
2021/12/15 09:42:04;;;;;;;18.60;14.17;;;8.70;99.90;;;;;;5071677;28;20446;-54
2021/12/15 09:44:30;;;;;;;19.27;14.23;;;8.70;99.90;;;;;;5070195;28;20477;-49
2021/12/15 09:47:16;;;;;;;19.00;14.37;;;8.80;99.90;;;;;;5053480;28;20526;-51
2021/12/15 10:03:35;;;;;;;17.20;12.83;;;9.20;99.90;;;;;;5070065;28;20419;-56
2021/12/15 10:19:33;;;;;;;13.50;11.43;;;9.70;99.90;;;;;;5078862;28;20446;-53
2021/12/15 10:22:29;;;;;;;13.30;11.10;;;9.70;99.90;;;;;;5070430;28;20411;-53
2021/12/15 10:24:58;;;;;;;12.90;10.83;;;9.70;99.90;;;;;;5070936;28;21337;-52
2021/12/15 10:27:38;;;;;;;13.20;10.37;;;9.70;99.90;;;;;;5070190;28;20420;-54
2021/12/15 10:30:12;;;;;;;12.37;10.00;;;9.70;99.90;;;;;;5070646;28;20507;-54
2021/12/15 10:32:41;;;;;;;11.87;9.60;;;9.80;99.90;;;;;;5070640;28;20420;-55
2021/12/15 10:35:41;;;;;;;11.47;9.50;;;9.70;99.90;;;;;;5069777;28;20968;-55
2021/12/15 10:38:16;;;;;;;13.30;10.47;;;9.80;99.90;;;;;;5065351;28;20523;-53
2021/12/15 10:40:47;;;;;;;14.03;10.77;;;9.70;99.90;;;;;;5069682;28;20453;-54
2021/12/15 10:43:12;;;;;;;11.73;10.50;;;9.80;99.90;;;;;;5074224;28;20427;-54
2021/12/15 10:45:50;;;;;;;11.40;9.67;;;9.90;99.90;;;;;;5070201;28;20468;-54
2021/12/15 10:48:35;;;;;;;11.73;8.80;;;10.00;99.90;;;;;;5070534;28;20279;-53
2021/12/15 10:51:04;;;;;;;12.10;9.70;;;10.10;99.90;;;;;;5074458;28;20570;-55
2021/12/15 10:53:36;;;;;;;9.70;8.70;;;10.00;99.90;;;;;;5069692;28;20518;-53
2021/12/15 10:56:14;;;;;;;10.47;9.00;;;9.90;99.90;;;;;;5071635;28;20447;-52
2021/12/15 10:58:53;;;;;;;12.63;9.10;;;9.90;99.90;;;;;;5070240;28;20798;-55
2021/12/15 11:01:58;;;;;;;10.80;9.23;;;10.10;99.90;;;;;;5069522;28;20786;-52
2021/12/15 11:04:32;;;;;;;10.50;9.10;;;10.10;99.90;;;;;;5006790;28;20925;-50
2021/12/15 11:07:16;;;;;;;11.90;9.50;;;10.10;99.90;;;;;;5060664;28;20455;-51
2021/12/15 11:09:45;;;;;;;11.00;9.53;;;10.20;99.90;;;;;;5069467;28;20428;-54
2021/12/15 11:12:22;;;;;;;13.00;10.90;;;10.20;99.90;;;;;;5058248;28;20433;-53
2021/12/15 11:14:51;;;;;;;13.30;11.37;;;10.20;99.90;;;;;;5074387;28;20421;-55
2021/12/15 11:17:38;;;;;;;13.60;11.23;;;10.20;99.90;;;;;;5061072;28;20432;-54
2021/12/15 11:20:10;;;;;;;12.87;10.73;;;10.30;99.90;;;;;;5057158;28;20419;-51
2021/12/15 11:22:47;;;;;;;13.47;11.37;;;10.30;99.90;;;;;;5069731;28;20415;-54
2021/12/15 11:25:32;;;;;;;12.53;10.73;;;10.30;99.90;;;;;;5069028;28;20528;-51
2021/12/15 11:28:20;;;;;;;12.40;10.77;;;10.30;99.90;;;;;;5069432;28;20450;-55
2021/12/15 11:31:07;;;;;;;13.70;11.03;;;10.30;99.90;;;;;;5069246;28;21035;-53
2021/12/15 11:33:37;;;;;;;13.30;10.60;;;10.30;99.90;;;;;;5069499;28;20451;-53
2021/12/15 11:36:06;;;;;;;13.60;11.53;;;10.30;99.90;;;;;;5069310;28;20415;-51
2021/12/15 11:38:35;;;;;;;13.17;11.37;;;10.30;99.90;;;;;;5055748;28;20408;-55
2021/12/15 11:41:03;;;;;;;15.20;11.93;;;10.30;99.90;;;;;;5069125;28;20419;-52
2021/12/15 11:43:38;;;;;;;13.37;11.83;;;10.40;99.90;;;;;;5067991;28;20423;-53
2021/12/15 11:46:23;;;;;;;11.27;9.73;;;10.50;99.90;;;;;;5069247;28;20508;-48
2021/12/15 11:48:57;;;;;;;10.67;8.40;;;10.50;99.90;;;;;;5064150;28;20435;-54
2021/12/15 11:51:47;;;;;;;10.27;8.20;;;10.60;99.90;;;;;;5067255;28;20475;-56
2021/12/15 11:54:24;;;;;;;10.97;9.03;;;10.60;99.90;;;;;;5068570;28;20420;-55
2021/12/15 11:57:03;;;;;;;6.57;5.50;;;10.50;99.90;;;;;;5067654;28;20751;-53
2021/12/15 11:59:30;;;;;;;5.70;4.90;;;10.60;99.90;;;;;;5069253;28;20430;-54
2021/12/15 12:02:04;;;;;;;5.60;5.00;;;10.60;99.90;;;;;;5068869;28;20470;-55
2021/12/15 12:04:39;;;;;;;5.60;4.60;;;10.70;99.90;;;;;;5061595;28;20519;-51
2021/12/15 12:07:25;;;;;;;6.43;5.07;;;10.70;99.90;;;;;;5065324;28;20545;-53
2021/12/15 12:10:13;;;;;;;5.90;4.70;;;10.60;99.90;;;;;;5062880;28;20408;-54
2021/12/15 12:12:50;;;;;;;6.20;4.80;;;10.50;99.90;;;;;;5068618;28;20458;-49
2021/12/15 12:15:18;;;;;;;5.63;5.00;;;10.40;99.90;;;;;;5080403;28;20493;-55
2021/12/15 12:17:47;;;;;;;5.57;4.50;;;10.30;99.90;;;;;;5061533;28;20429;-56
2021/12/15 12:20:25;;;;;;;5.30;4.40;;;10.30;99.90;;;;;;5063738;28;20459;-59
2021/12/15 12:22:53;;;;;;;6.17;5.37;;;10.30;99.90;;;;;;5049414;28;20424;-54
2021/12/15 12:25:24;;;;;;;5.40;4.90;;;10.20;99.90;;;;;;5050537;28;20467;-54
2021/12/15 12:27:51;;;;;;;6.57;5.87;;;10.20;99.90;;;;;;5051985;28;20583;-53
2021/12/15 12:30:25;;;;;;;5.73;5.13;;;10.20;99.90;;;;;;5049754;28;20445;-52
2021/12/15 12:32:52;;;;;;;7.40;5.50;;;10.00;99.90;;;;;;5051423;28;20890;-55
2021/12/15 12:35:22;;;;;;;7.47;5.80;;;9.80;99.90;;;;;;5048815;28;20432;-53
2021/12/15 12:37:59;;;;;;;6.63;5.70;;;9.70;99.90;;;;;;5050624;28;20504;-53
2021/12/15 12:40:38;;;;;;;6.60;5.87;;;9.60;99.90;;;;;;5047782;28;20435;-55
2021/12/15 12:43:19;;;;;;;7.07;6.30;;;9.60;99.90;;;;;;5064468;28;20959;-50
2021/12/15 12:46:21;;;;;;;7.33;6.23;;;9.60;99.90;;;;;;5067852;28;20464;-58
2021/12/15 13:00:02;;;;;;;7.80;6.80;;;9.50;99.90;;;;;;5061531;28;21132;-53
2021/12/15 13:02:37;;;;;;;9.50;8.10;;;9.40;99.90;;;;;;5068033;28;20953;-54
2021/12/15 13:05:05;;;;;;;10.07;7.70;;;9.40;99.90;;;;;;5078469;28;20423;-61
2021/12/15 13:07:53;;;;;;;8.30;7.20;;;9.40;99.90;;;;;;5068129;28;20499;-62
2021/12/15 13:10:21;;;;;;;8.70;7.30;;;9.40;99.90;;;;;;5065699;28;20481;-62
2021/12/15 13:12:47;;;;;;;8.80;7.40;;;9.40;99.90;;;;;;5049828;28;20423;-62
2021/12/15 13:15:20;;;;;;;8.27;6.97;;;9.50;99.90;;;;;;5066139;28;20448;-63
2021/12/15 13:18:03;;;;;;;9.03;7.37;;;9.50;99.90;;;;;;5068075;28;20412;-62
2021/12/15 13:20:32;;;;;;;7.97;6.80;;;9.60;99.90;;;;;;5075350;28;20427;-62
2021/12/15 13:23:29;;;;;;;8.00;6.80;;;9.70;99.90;;;;;;5065359;28;20424;-62
2021/12/15 13:28:47;;;;;;;7.10;6.40;;;9.80;99.90;;;;;;5061984;28;20944;-66
2021/12/15 13:31:33;;;;;;;7.47;6.60;;;9.90;99.90;;;;;;5062701;28;21285;-58
2021/12/15 13:34:00;;;;;;;8.23;6.67;;;10.00;99.90;;;;;;5063851;28;20426;-65
2021/12/15 13:36:30;;;;;;;8.67;7.67;;;10.00;99.90;;;;;;5046323;28;20444;-64
2021/12/15 13:39:09;;;;;;;7.30;6.60;;;10.10;99.90;;;;;;5076135;28;20420;-63
2021/12/15 13:41:48;;;;;;;7.00;6.30;;;10.10;99.90;;;;;;5062368;28;20448;-63
2021/12/15 13:44:40;;;;;;;8.17;7.33;;;10.30;99.90;;;;;;5070829;28;20584;-61
2021/12/15 13:47:09;;;;;;;7.97;6.53;;;10.50;99.90;;;;;;5067808;28;20551;-65
2021/12/15 13:49:51;;;;;;;7.07;6.03;;;10.60;99.90;;;;;;5073228;28;20886;-61
2021/12/15 13:52:35;;;;;;;7.10;5.70;;;10.80;99.90;;;;;;5073390;28;20439;-62
2021/12/15 13:55:04;;;;;;;6.80;5.97;;;10.90;99.90;;;;;;5079790;28;20435;-61
2021/12/15 13:57:34;;;;;;;7.43;6.70;;;11.00;99.90;;;;;;5071771;28;20497;-60
2021/12/15 14:00:16;;;;;;;7.60;6.73;;;10.90;99.90;;;;;;5070403;28;20824;-61
2021/12/15 14:02:53;;;;;;;7.50;6.50;;;10.80;99.90;;;;;;5074160;28;20447;-61
2021/12/15 14:05:25;;;;;;;6.97;6.00;;;10.80;99.90;;;;;;5066563;28;22753;-62
2021/12/15 14:08:02;;;;;;;6.97;6.27;;;10.70;99.90;;;;;;5066393;28;20455;-62
2021/12/15 14:10:27;;;;;;;7.17;6.37;;;10.70;99.90;;;;;;5065123;28;20436;-63
2021/12/15 14:12:57;;;;;;;7.00;5.90;;;10.70;99.90;;;;;;5068858;28;20415;-63
2021/12/15 14:15:25;;;;;;;6.70;6.00;;;10.70;99.90;;;;;;5065427;28;20199;-63
2021/12/15 14:18:18;;;;;;;6.70;5.87;;;10.60;99.90;;;;;;5070423;28;20412;-63
2021/12/15 14:21:11;;;;;;;5.90;5.30;;;10.60;99.90;;;;;;5066899;28;20519;-63
2021/12/15 14:23:40;;;;;;;6.23;5.63;;;10.60;99.90;;;;;;5069243;28;20411;-63
2021/12/15 14:26:18;;;;;;;7.33;6.27;;;10.50;99.90;;;;;;5067081;28;21192;-63